<?xml version="1.0" encoding="UTF-8" standalone="no"?><gpx xmlns="http://www.topografix.com/GPX/1/1" xmlns:gpxtpx="http://www.garmin.com/xmlschemas/TrackPointExtension/v1" xmlns:xsi="http://www.w3.org/2001/XMLSchema-instance" creator="Sports Tracker" version="1.1" xsi:schemaLocation="http://www.topografix.com/GPX/1/1 http://www.topografix.com/GPX/1/1/gpx.xsd http://www.garmin.com/xmlschemas/TrackPointExtension/v1 http://www.garmin.com/xmlschemas/TrackPointExtensionv1.xsd"><metadata><name>03.11.2020 12:56</name><desc>4. Aktivitesløype 2020 - Ringåsen</desc><author><name>John Haarr</name></author></metadata><trk><trkseg><trkpt lat="58.15794" lon="8.027647"><ele>52.0</ele><time>2020-11-03T11:56:46Z</time></trkpt><trkpt lat="58.157947" lon="8.027632"><ele>51.0</ele><time>2020-11-03T11:56:47Z</time></trkpt><trkpt lat="58.157963" lon="8.02758"><ele>50.0</ele><time>2020-11-03T11:56:54Z</time></trkpt><trkpt lat="58.15799" lon="8.027447"><ele>50.0</ele><time>2020-11-03T11:56:59Z</time></trkpt><trkpt lat="58.157978" lon="8.027287"><ele>51.0</ele><time>2020-11-03T11:57:05Z</time></trkpt><trkpt lat="58.157975" lon="8.027137"><ele>51.0</ele><time>2020-11-03T11:57:11Z</time></trkpt><trkpt lat="58.157975" lon="8.026983"><ele>52.0</ele><time>2020-11-03T11:57:17Z</time></trkpt><trkpt lat="58.157982" lon="8.02684"><ele>53.0</ele><time>2020-11-03T11:57:23Z</time></trkpt><trkpt lat="58.157985" lon="8.026685"><ele>53.0</ele><time>2020-11-03T11:57:28Z</time></trkpt><trkpt lat="58.15799" lon="8.02655"><ele>54.0</ele><time>2020-11-03T11:57:33Z</time></trkpt><trkpt lat="58.157995" lon="8.02641"><ele>54.0</ele><time>2020-11-03T11:57:38Z</time></trkpt><trkpt lat="58.158002" lon="8.026265"><ele>57.0</ele><time>2020-11-03T11:57:44Z</time></trkpt><trkpt lat="58.15802" lon="8.026128"><ele>56.0</ele><time>2020-11-03T11:57:50Z</time></trkpt><trkpt lat="58.15803" lon="8.025995"><ele>57.0</ele><time>2020-11-03T11:57:56Z</time></trkpt><trkpt lat="58.158047" lon="8.02586"><ele>57.0</ele><time>2020-11-03T11:58:02Z</time></trkpt><trkpt lat="58.158055" lon="8.0257"><ele>55.0</ele><time>2020-11-03T11:58:08Z</time></trkpt><trkpt lat="58.158075" lon="8.025555"><ele>56.0</ele><time>2020-11-03T11:58:14Z</time></trkpt><trkpt lat="58.15809" lon="8.025415"><ele>56.0</ele><time>2020-11-03T11:58:19Z</time></trkpt><trkpt lat="58.15809" lon="8.025255"><ele>56.0</ele><time>2020-11-03T11:58:25Z</time></trkpt><trkpt lat="58.158085" lon="8.025105"><ele>55.0</ele><time>2020-11-03T11:58:30Z</time></trkpt><trkpt lat="58.158048" lon="8.024972"><ele>55.0</ele><time>2020-11-03T11:58:36Z</time></trkpt><trkpt lat="58.158005" lon="8.024842"><ele>54.0</ele><time>2020-11-03T11:58:42Z</time></trkpt><trkpt lat="58.15797" lon="8.02472"><ele>54.0</ele><time>2020-11-03T11:58:48Z</time></trkpt><trkpt lat="58.157947" lon="8.024585"><ele>54.0</ele><time>2020-11-03T11:58:53Z</time></trkpt><trkpt lat="58.15796" lon="8.02443"><ele>54.0</ele><time>2020-11-03T11:58:58Z</time></trkpt><trkpt lat="58.158005" lon="8.0243"><ele>54.0</ele><time>2020-11-03T11:59:04Z</time></trkpt><trkpt lat="58.158043" lon="8.024158"><ele>53.0</ele><time>2020-11-03T11:59:10Z</time></trkpt><trkpt lat="58.158085" lon="8.024043"><ele>53.0</ele><time>2020-11-03T11:59:17Z</time></trkpt><trkpt lat="58.1581" lon="8.02389"><ele>53.0</ele><time>2020-11-03T11:59:23Z</time></trkpt><trkpt lat="58.158118" lon="8.023743"><ele>51.0</ele><time>2020-11-03T11:59:29Z</time></trkpt><trkpt lat="58.15811" lon="8.023605"><ele>51.0</ele><time>2020-11-03T11:59:35Z</time></trkpt><trkpt lat="58.15807" lon="8.02347"><ele>51.0</ele><time>2020-11-03T11:59:41Z</time></trkpt><trkpt lat="58.158033" lon="8.023325"><ele>52.0</ele><time>2020-11-03T11:59:47Z</time></trkpt><trkpt lat="58.158022" lon="8.023193"><ele>51.0</ele><time>2020-11-03T11:59:52Z</time></trkpt><trkpt lat="58.158055" lon="8.023065"><ele>51.0</ele><time>2020-11-03T11:59:58Z</time></trkpt><trkpt lat="58.158118" lon="8.022963"><ele>50.0</ele><time>2020-11-03T12:00:04Z</time></trkpt><trkpt lat="58.158172" lon="8.022865"><ele>50.0</ele><time>2020-11-03T12:00:10Z</time></trkpt><trkpt lat="58.158232" lon="8.022775"><ele>50.0</ele><time>2020-11-03T12:00:16Z</time></trkpt><trkpt lat="58.158305" lon="8.022698"><ele>51.0</ele><time>2020-11-03T12:00:22Z</time></trkpt><trkpt lat="58.158362" lon="8.022588"><ele>50.0</ele><time>2020-11-03T12:00:28Z</time></trkpt><trkpt lat="58.15842" lon="8.02248"><ele>48.0</ele><time>2020-11-03T12:00:34Z</time></trkpt><trkpt lat="58.158497" lon="8.022427"><ele>50.0</ele><time>2020-11-03T12:00:40Z</time></trkpt><trkpt lat="58.158575" lon="8.02243"><ele>48.0</ele><time>2020-11-03T12:00:45Z</time></trkpt><trkpt lat="58.158655" lon="8.022437"><ele>49.0</ele><time>2020-11-03T12:00:51Z</time></trkpt><trkpt lat="58.15873" lon="8.022442"><ele>48.0</ele><time>2020-11-03T12:00:57Z</time></trkpt><trkpt lat="58.158805" lon="8.02243"><ele>48.0</ele><time>2020-11-03T12:01:04Z</time></trkpt><trkpt lat="58.158847" lon="8.022302"><ele>48.0</ele><time>2020-11-03T12:01:11Z</time></trkpt><trkpt lat="58.158877" lon="8.022177"><ele>49.0</ele><time>2020-11-03T12:01:17Z</time></trkpt><trkpt lat="58.158905" lon="8.02205"><ele>48.0</ele><time>2020-11-03T12:01:23Z</time></trkpt><trkpt lat="58.158955" lon="8.021943"><ele>48.0</ele><time>2020-11-03T12:01:29Z</time></trkpt><trkpt lat="58.158995" lon="8.021825"><ele>48.0</ele><time>2020-11-03T12:01:35Z</time></trkpt><trkpt lat="58.159045" lon="8.02172"><ele>49.0</ele><time>2020-11-03T12:01:40Z</time></trkpt><trkpt lat="58.15909" lon="8.021598"><ele>48.0</ele><time>2020-11-03T12:01:46Z</time></trkpt><trkpt lat="58.159135" lon="8.021465"><ele>48.0</ele><time>2020-11-03T12:01:53Z</time></trkpt><trkpt lat="58.159167" lon="8.021345"><ele>49.0</ele><time>2020-11-03T12:02:00Z</time></trkpt><trkpt lat="58.15922" lon="8.021228"><ele>51.0</ele><time>2020-11-03T12:02:06Z</time></trkpt><trkpt lat="58.159242" lon="8.021085"><ele>50.0</ele><time>2020-11-03T12:02:13Z</time></trkpt><trkpt lat="58.15927" lon="8.020997"><ele>51.0</ele><time>2020-11-03T12:02:20Z</time></trkpt><trkpt lat="58.159325" lon="8.020925"><ele>50.0</ele><time>2020-11-03T12:02:27Z</time></trkpt><trkpt lat="58.159405" lon="8.020918"><ele>50.0</ele><time>2020-11-03T12:02:33Z</time></trkpt><trkpt lat="58.15948" lon="8.02091"><ele>47.0</ele><time>2020-11-03T12:02:39Z</time></trkpt><trkpt lat="58.15955" lon="8.020955"><ele>45.0</ele><time>2020-11-03T12:02:46Z</time></trkpt><trkpt lat="58.159617" lon="8.02101"><ele>45.0</ele><time>2020-11-03T12:02:52Z</time></trkpt><trkpt lat="58.159687" lon="8.021082"><ele>45.0</ele><time>2020-11-03T12:02:57Z</time></trkpt><trkpt lat="58.15975" lon="8.021165"><ele>45.0</ele><time>2020-11-03T12:03:04Z</time></trkpt><trkpt lat="58.159822" lon="8.021227"><ele>42.0</ele><time>2020-11-03T12:03:10Z</time></trkpt><trkpt lat="58.15989" lon="8.021295"><ele>42.0</ele><time>2020-11-03T12:03:16Z</time></trkpt><trkpt lat="58.159945" lon="8.02139"><ele>43.0</ele><time>2020-11-03T12:03:22Z</time></trkpt><trkpt lat="58.15999" lon="8.021495"><ele>45.0</ele><time>2020-11-03T12:03:28Z</time></trkpt><trkpt lat="58.16004" lon="8.02162"><ele>45.0</ele><time>2020-11-03T12:03:35Z</time></trkpt><trkpt lat="58.160092" lon="8.021725"><ele>46.0</ele><time>2020-11-03T12:03:41Z</time></trkpt><trkpt lat="58.160137" lon="8.021855"><ele>48.0</ele><time>2020-11-03T12:03:47Z</time></trkpt><trkpt lat="58.1602" lon="8.021947"><ele>48.0</ele><time>2020-11-03T12:03:54Z</time></trkpt><trkpt lat="58.16026" lon="8.02203"><ele>47.0</ele><time>2020-11-03T12:04:01Z</time></trkpt><trkpt lat="58.160313" lon="8.022153"><ele>46.0</ele><time>2020-11-03T12:04:08Z</time></trkpt><trkpt lat="58.160375" lon="8.02224"><ele>47.0</ele><time>2020-11-03T12:04:14Z</time></trkpt><trkpt lat="58.160435" lon="8.022303"><ele>48.0</ele><time>2020-11-03T12:04:21Z</time></trkpt><trkpt lat="58.160502" lon="8.02237"><ele>48.0</ele><time>2020-11-03T12:04:27Z</time></trkpt><trkpt lat="58.16055" lon="8.02243"><ele>50.0</ele><time>2020-11-03T12:04:34Z</time></trkpt><trkpt lat="58.160617" lon="8.022485"><ele>48.0</ele><time>2020-11-03T12:04:40Z</time></trkpt><trkpt lat="58.1607" lon="8.022465"><ele>48.0</ele><time>2020-11-03T12:04:47Z</time></trkpt><trkpt lat="58.16075" lon="8.02236"><ele>48.0</ele><time>2020-11-03T12:04:53Z</time></trkpt><trkpt lat="58.160778" lon="8.02222"><ele>49.0</ele><time>2020-11-03T12:05:00Z</time></trkpt><trkpt lat="58.160745" lon="8.02209"><ele>50.0</ele><time>2020-11-03T12:05:07Z</time></trkpt><trkpt lat="58.16068" lon="8.02201"><ele>52.0</ele><time>2020-11-03T12:05:13Z</time></trkpt><trkpt lat="58.160625" lon="8.021912"><ele>54.0</ele><time>2020-11-03T12:05:18Z</time></trkpt><trkpt lat="58.16058" lon="8.02178"><ele>55.0</ele><time>2020-11-03T12:05:24Z</time></trkpt><trkpt lat="58.160535" lon="8.021665"><ele>56.0</ele><time>2020-11-03T12:05:29Z</time></trkpt><trkpt lat="58.16049" lon="8.02154"><ele>57.0</ele><time>2020-11-03T12:05:35Z</time></trkpt><trkpt lat="58.160445" lon="8.021417"><ele>58.0</ele><time>2020-11-03T12:05:41Z</time></trkpt><trkpt lat="58.160372" lon="8.021337"><ele>57.0</ele><time>2020-11-03T12:05:48Z</time></trkpt><trkpt lat="58.16029" lon="8.021295"><ele>57.0</ele><time>2020-11-03T12:05:55Z</time></trkpt><trkpt lat="58.16022" lon="8.02124"><ele>58.0</ele><time>2020-11-03T12:06:00Z</time></trkpt><trkpt lat="58.16015" lon="8.021155"><ele>58.0</ele><time>2020-11-03T12:06:07Z</time></trkpt><trkpt lat="58.160085" lon="8.021082"><ele>59.0</ele><time>2020-11-03T12:06:12Z</time></trkpt><trkpt lat="58.160018" lon="8.021005"><ele>59.0</ele><time>2020-11-03T12:06:17Z</time></trkpt><trkpt lat="58.15996" lon="8.020902"><ele>58.0</ele><time>2020-11-03T12:06:23Z</time></trkpt><trkpt lat="58.159895" lon="8.02083"><ele>58.0</ele><time>2020-11-03T12:06:29Z</time></trkpt><trkpt lat="58.15982" lon="8.020745"><ele>56.0</ele><time>2020-11-03T12:06:35Z</time></trkpt><trkpt lat="58.159765" lon="8.020637"><ele>57.0</ele><time>2020-11-03T12:06:41Z</time></trkpt><trkpt lat="58.159755" lon="8.020482"><ele>55.0</ele><time>2020-11-03T12:06:46Z</time></trkpt><trkpt lat="58.159747" lon="8.020333"><ele>55.0</ele><time>2020-11-03T12:06:51Z</time></trkpt><trkpt lat="58.15977" lon="8.020203"><ele>54.0</ele><time>2020-11-03T12:06:56Z</time></trkpt><trkpt lat="58.159825" lon="8.02008"><ele>53.0</ele><time>2020-11-03T12:07:02Z</time></trkpt><trkpt lat="58.159885" lon="8.019972"><ele>52.0</ele><time>2020-11-03T12:07:08Z</time></trkpt><trkpt lat="58.159955" lon="8.01989"><ele>51.0</ele><time>2020-11-03T12:07:14Z</time></trkpt><trkpt lat="58.16003" lon="8.01983"><ele>50.0</ele><time>2020-11-03T12:07:20Z</time></trkpt><trkpt lat="58.160105" lon="8.019825"><ele>49.0</ele><time>2020-11-03T12:07:26Z</time></trkpt><trkpt lat="58.160157" lon="8.019825"><ele>49.0</ele><time>2020-11-03T12:07:33Z</time></trkpt><trkpt lat="58.160175" lon="8.01983"><ele>49.0</ele><time>2020-11-03T12:07:40Z</time></trkpt><trkpt lat="58.160235" lon="8.019835"><ele>50.0</ele><time>2020-11-03T12:07:47Z</time></trkpt><trkpt lat="58.160312" lon="8.019857"><ele>50.0</ele><time>2020-11-03T12:07:53Z</time></trkpt><trkpt lat="58.16039" lon="8.019862"><ele>50.0</ele><time>2020-11-03T12:07:59Z</time></trkpt><trkpt lat="58.160463" lon="8.019867"><ele>50.0</ele><time>2020-11-03T12:08:05Z</time></trkpt><trkpt lat="58.160545" lon="8.019877"><ele>50.0</ele><time>2020-11-03T12:08:12Z</time></trkpt><trkpt lat="58.160618" lon="8.019898"><ele>49.0</ele><time>2020-11-03T12:08:18Z</time></trkpt><trkpt lat="58.16069" lon="8.01992"><ele>50.0</ele><time>2020-11-03T12:08:24Z</time></trkpt><trkpt lat="58.160772" lon="8.019947"><ele>50.0</ele><time>2020-11-03T12:08:31Z</time></trkpt><trkpt lat="58.160847" lon="8.01999"><ele>49.0</ele><time>2020-11-03T12:08:38Z</time></trkpt><trkpt lat="58.160917" lon="8.020045"><ele>49.0</ele><time>2020-11-03T12:08:44Z</time></trkpt><trkpt lat="58.160985" lon="8.020123"><ele>49.0</ele><time>2020-11-03T12:08:50Z</time></trkpt><trkpt lat="58.161025" lon="8.020242"><ele>48.0</ele><time>2020-11-03T12:08:56Z</time></trkpt><trkpt lat="58.16107" lon="8.020365"><ele>49.0</ele><time>2020-11-03T12:09:02Z</time></trkpt><trkpt lat="58.1611" lon="8.0205"><ele>50.0</ele><time>2020-11-03T12:09:07Z</time></trkpt><trkpt lat="58.161138" lon="8.020618"><ele>51.0</ele><time>2020-11-03T12:09:13Z</time></trkpt><trkpt lat="58.161175" lon="8.020745"><ele>52.0</ele><time>2020-11-03T12:09:18Z</time></trkpt><trkpt lat="58.16121" lon="8.020893"><ele>50.0</ele><time>2020-11-03T12:09:24Z</time></trkpt><trkpt lat="58.161228" lon="8.02103"><ele>51.0</ele><time>2020-11-03T12:09:29Z</time></trkpt><trkpt lat="58.16126" lon="8.021168"><ele>51.0</ele><time>2020-11-03T12:09:35Z</time></trkpt><trkpt lat="58.16129" lon="8.02131"><ele>52.0</ele><time>2020-11-03T12:09:41Z</time></trkpt><trkpt lat="58.16132" lon="8.021445"><ele>51.0</ele><time>2020-11-03T12:09:46Z</time></trkpt><trkpt lat="58.161337" lon="8.02158"><ele>52.0</ele><time>2020-11-03T12:09:51Z</time></trkpt><trkpt lat="58.161365" lon="8.02173"><ele>52.0</ele><time>2020-11-03T12:09:57Z</time></trkpt><trkpt lat="58.1614" lon="8.021875"><ele>53.0</ele><time>2020-11-03T12:10:03Z</time></trkpt><trkpt lat="58.16143" lon="8.021995"><ele>52.0</ele><time>2020-11-03T12:10:08Z</time></trkpt><trkpt lat="58.161452" lon="8.02214"><ele>53.0</ele><time>2020-11-03T12:10:13Z</time></trkpt><trkpt lat="58.16149" lon="8.02229"><ele>53.0</ele><time>2020-11-03T12:10:20Z</time></trkpt><trkpt lat="58.161523" lon="8.022427"><ele>52.0</ele><time>2020-11-03T12:10:26Z</time></trkpt><trkpt lat="58.16156" lon="8.02255"><ele>53.0</ele><time>2020-11-03T12:10:31Z</time></trkpt><trkpt lat="58.161592" lon="8.022695"><ele>53.0</ele><time>2020-11-03T12:10:37Z</time></trkpt><trkpt lat="58.16162" lon="8.02285"><ele>53.0</ele><time>2020-11-03T12:10:44Z</time></trkpt><trkpt lat="58.16165" lon="8.02298"><ele>53.0</ele><time>2020-11-03T12:10:49Z</time></trkpt><trkpt lat="58.161677" lon="8.023125"><ele>54.0</ele><time>2020-11-03T12:10:55Z</time></trkpt><trkpt lat="58.161705" lon="8.023252"><ele>55.0</ele><time>2020-11-03T12:11:00Z</time></trkpt><trkpt lat="58.161735" lon="8.023382"><ele>54.0</ele><time>2020-11-03T12:11:05Z</time></trkpt><trkpt lat="58.161775" lon="8.02351"><ele>54.0</ele><time>2020-11-03T12:11:11Z</time></trkpt><trkpt lat="58.1618" lon="8.023648"><ele>55.0</ele><time>2020-11-03T12:11:17Z</time></trkpt><trkpt lat="58.161832" lon="8.023792"><ele>57.0</ele><time>2020-11-03T12:11:24Z</time></trkpt><trkpt lat="58.16188" lon="8.02393"><ele>57.0</ele><time>2020-11-03T12:11:30Z</time></trkpt><trkpt lat="58.161927" lon="8.02406"><ele>57.0</ele><time>2020-11-03T12:11:37Z</time></trkpt><trkpt lat="58.161965" lon="8.024195"><ele>57.0</ele><time>2020-11-03T12:11:44Z</time></trkpt><trkpt lat="58.162005" lon="8.024335"><ele>58.0</ele><time>2020-11-03T12:11:50Z</time></trkpt><trkpt lat="58.162055" lon="8.024452"><ele>58.0</ele><time>2020-11-03T12:11:56Z</time></trkpt><trkpt lat="58.16208" lon="8.02459"><ele>56.0</ele><time>2020-11-03T12:12:01Z</time></trkpt><trkpt lat="58.162112" lon="8.024725"><ele>56.0</ele><time>2020-11-03T12:12:07Z</time></trkpt><trkpt lat="58.162122" lon="8.024872"><ele>55.0</ele><time>2020-11-03T12:12:13Z</time></trkpt><trkpt lat="58.162127" lon="8.025013"><ele>55.0</ele><time>2020-11-03T12:12:18Z</time></trkpt><trkpt lat="58.162143" lon="8.025163"><ele>54.0</ele><time>2020-11-03T12:12:24Z</time></trkpt><trkpt lat="58.162155" lon="8.025317"><ele>55.0</ele><time>2020-11-03T12:12:29Z</time></trkpt><trkpt lat="58.162155" lon="8.025452"><ele>56.0</ele><time>2020-11-03T12:12:34Z</time></trkpt><trkpt lat="58.162165" lon="8.025597"><ele>55.0</ele><time>2020-11-03T12:12:41Z</time></trkpt><trkpt lat="58.162185" lon="8.025737"><ele>54.0</ele><time>2020-11-03T12:12:47Z</time></trkpt><trkpt lat="58.162212" lon="8.02589"><ele>54.0</ele><time>2020-11-03T12:12:53Z</time></trkpt><trkpt lat="58.162245" lon="8.026025"><ele>52.0</ele><time>2020-11-03T12:12:59Z</time></trkpt><trkpt lat="58.162272" lon="8.02617"><ele>53.0</ele><time>2020-11-03T12:13:05Z</time></trkpt><trkpt lat="58.162297" lon="8.026305"><ele>53.0</ele><time>2020-11-03T12:13:11Z</time></trkpt><trkpt lat="58.16233" lon="8.02645"><ele>52.0</ele><time>2020-11-03T12:13:17Z</time></trkpt><trkpt lat="58.16236" lon="8.026578"><ele>53.0</ele><time>2020-11-03T12:13:23Z</time></trkpt><trkpt lat="58.162387" lon="8.02671"><ele>54.0</ele><time>2020-11-03T12:13:30Z</time></trkpt><trkpt lat="58.16238" lon="8.02675"><ele>54.0</ele><time>2020-11-03T12:13:37Z</time></trkpt><trkpt lat="58.162375" lon="8.026747"><ele>54.0</ele><time>2020-11-03T12:13:44Z</time></trkpt><trkpt lat="58.162405" lon="8.026875"><ele>55.0</ele><time>2020-11-03T12:13:51Z</time></trkpt><trkpt lat="58.16243" lon="8.026997"><ele>55.0</ele><time>2020-11-03T12:13:58Z</time></trkpt><trkpt lat="58.16245" lon="8.027145"><ele>56.0</ele><time>2020-11-03T12:14:05Z</time></trkpt><trkpt lat="58.16248" lon="8.027287"><ele>56.0</ele><time>2020-11-03T12:14:11Z</time></trkpt><trkpt lat="58.1625" lon="8.027418"><ele>56.0</ele><time>2020-11-03T12:14:17Z</time></trkpt><trkpt lat="58.16253" lon="8.027548"><ele>57.0</ele><time>2020-11-03T12:14:24Z</time></trkpt><trkpt lat="58.162547" lon="8.02769"><ele>58.0</ele><time>2020-11-03T12:14:31Z</time></trkpt><trkpt lat="58.162565" lon="8.027842"><ele>60.0</ele><time>2020-11-03T12:14:38Z</time></trkpt><trkpt lat="58.162582" lon="8.02799"><ele>62.0</ele><time>2020-11-03T12:14:45Z</time></trkpt><trkpt lat="58.162565" lon="8.028145"><ele>63.0</ele><time>2020-11-03T12:14:51Z</time></trkpt><trkpt lat="58.16254" lon="8.028275"><ele>63.0</ele><time>2020-11-03T12:14:56Z</time></trkpt><trkpt lat="58.162497" lon="8.02839"><ele>63.0</ele><time>2020-11-03T12:15:01Z</time></trkpt><trkpt lat="58.162445" lon="8.028498"><ele>64.0</ele><time>2020-11-03T12:15:07Z</time></trkpt><trkpt lat="58.162425" lon="8.028632"><ele>64.0</ele><time>2020-11-03T12:15:13Z</time></trkpt><trkpt lat="58.162405" lon="8.028778"><ele>66.0</ele><time>2020-11-03T12:15:19Z</time></trkpt><trkpt lat="58.16238" lon="8.028913"><ele>67.0</ele><time>2020-11-03T12:15:25Z</time></trkpt><trkpt lat="58.162362" lon="8.029048"><ele>67.0</ele><time>2020-11-03T12:15:30Z</time></trkpt><trkpt lat="58.162345" lon="8.029195"><ele>69.0</ele><time>2020-11-03T12:15:36Z</time></trkpt><trkpt lat="58.16233" lon="8.02935"><ele>71.0</ele><time>2020-11-03T12:15:43Z</time></trkpt><trkpt lat="58.162307" lon="8.0295"><ele>71.0</ele><time>2020-11-03T12:15:50Z</time></trkpt><trkpt lat="58.16226" lon="8.029617"><ele>70.0</ele><time>2020-11-03T12:15:56Z</time></trkpt><trkpt lat="58.162227" lon="8.029765"><ele>71.0</ele><time>2020-11-03T12:16:02Z</time></trkpt><trkpt lat="58.162207" lon="8.029895"><ele>69.0</ele><time>2020-11-03T12:16:08Z</time></trkpt><trkpt lat="58.162197" lon="8.03003"><ele>69.0</ele><time>2020-11-03T12:16:14Z</time></trkpt><trkpt lat="58.162185" lon="8.030172"><ele>67.0</ele><time>2020-11-03T12:16:20Z</time></trkpt><trkpt lat="58.16217" lon="8.030327"><ele>68.0</ele><time>2020-11-03T12:16:27Z</time></trkpt><trkpt lat="58.162142" lon="8.030467"><ele>69.0</ele><time>2020-11-03T12:16:33Z</time></trkpt><trkpt lat="58.162175" lon="8.030543"><ele>69.0</ele><time>2020-11-03T12:16:40Z</time></trkpt><trkpt lat="58.162207" lon="8.03067"><ele>70.0</ele><time>2020-11-03T12:16:45Z</time></trkpt><trkpt lat="58.16224" lon="8.030812"><ele>69.0</ele><time>2020-11-03T12:16:52Z</time></trkpt><trkpt lat="58.162255" lon="8.03095"><ele>69.0</ele><time>2020-11-03T12:16:58Z</time></trkpt><trkpt lat="58.162272" lon="8.03109"><ele>67.0</ele><time>2020-11-03T12:17:04Z</time></trkpt><trkpt lat="58.162282" lon="8.031127"><ele>66.0</ele><time>2020-11-03T12:17:11Z</time></trkpt><trkpt lat="58.16232" lon="8.031078"><ele>66.0</ele><time>2020-11-03T12:17:18Z</time></trkpt><trkpt lat="58.16235" lon="8.03111"><ele>66.0</ele><time>2020-11-03T12:17:25Z</time></trkpt><trkpt lat="58.162385" lon="8.03126"><ele>66.0</ele><time>2020-11-03T12:17:30Z</time></trkpt><trkpt lat="58.162425" lon="8.03139"><ele>64.0</ele><time>2020-11-03T12:17:36Z</time></trkpt><trkpt lat="58.162425" lon="8.031535"><ele>65.0</ele><time>2020-11-03T12:17:42Z</time></trkpt><trkpt lat="58.16242" lon="8.031665"><ele>68.0</ele><time>2020-11-03T12:17:49Z</time></trkpt><trkpt lat="58.162405" lon="8.031797"><ele>68.0</ele><time>2020-11-03T12:17:56Z</time></trkpt><trkpt lat="58.162385" lon="8.031935"><ele>68.0</ele><time>2020-11-03T12:18:03Z</time></trkpt><trkpt lat="58.1624" lon="8.03207"><ele>68.0</ele><time>2020-11-03T12:18:09Z</time></trkpt><trkpt lat="58.162427" lon="8.03222"><ele>66.0</ele><time>2020-11-03T12:18:15Z</time></trkpt><trkpt lat="58.162415" lon="8.032265"><ele>67.0</ele><time>2020-11-03T12:18:22Z</time></trkpt><trkpt lat="58.16243" lon="8.03238"><ele>67.0</ele><time>2020-11-03T12:18:29Z</time></trkpt><trkpt lat="58.162387" lon="8.032493"><ele>66.0</ele><time>2020-11-03T12:18:35Z</time></trkpt><trkpt lat="58.162307" lon="8.03245"><ele>66.0</ele><time>2020-11-03T12:18:41Z</time></trkpt><trkpt lat="58.162265" lon="8.032312"><ele>68.0</ele><time>2020-11-03T12:18:46Z</time></trkpt><trkpt lat="58.162237" lon="8.03217"><ele>68.0</ele><time>2020-11-03T12:18:52Z</time></trkpt><trkpt lat="58.162205" lon="8.032025"><ele>68.0</ele><time>2020-11-03T12:18:58Z</time></trkpt><trkpt lat="58.16218" lon="8.031887"><ele>68.0</ele><time>2020-11-03T12:19:04Z</time></trkpt><trkpt lat="58.16216" lon="8.03173"><ele>69.0</ele><time>2020-11-03T12:19:10Z</time></trkpt><trkpt lat="58.162135" lon="8.03158"><ele>69.0</ele><time>2020-11-03T12:19:16Z</time></trkpt><trkpt lat="58.1621" lon="8.031457"><ele>69.0</ele><time>2020-11-03T12:19:21Z</time></trkpt><trkpt lat="58.162072" lon="8.031313"><ele>69.0</ele><time>2020-11-03T12:19:27Z</time></trkpt><trkpt lat="58.16205" lon="8.03116"><ele>67.0</ele><time>2020-11-03T12:19:33Z</time></trkpt><trkpt lat="58.16203" lon="8.031015"><ele>68.0</ele><time>2020-11-03T12:19:38Z</time></trkpt><trkpt lat="58.162" lon="8.03088"><ele>68.0</ele><time>2020-11-03T12:19:44Z</time></trkpt><trkpt lat="58.161965" lon="8.03073"><ele>67.0</ele><time>2020-11-03T12:19:50Z</time></trkpt><trkpt lat="58.161927" lon="8.030595"><ele>67.0</ele><time>2020-11-03T12:19:56Z</time></trkpt><trkpt lat="58.161895" lon="8.030472"><ele>67.0</ele><time>2020-11-03T12:20:02Z</time></trkpt><trkpt lat="58.16188" lon="8.03034"><ele>66.0</ele><time>2020-11-03T12:20:07Z</time></trkpt><trkpt lat="58.161895" lon="8.030195"><ele>63.0</ele><time>2020-11-03T12:20:13Z</time></trkpt><trkpt lat="58.16191" lon="8.030223"><ele>62.0</ele><time>2020-11-03T12:20:20Z</time></trkpt><trkpt lat="58.161918" lon="8.03012"><ele>63.0</ele><time>2020-11-03T12:20:27Z</time></trkpt><trkpt lat="58.161925" lon="8.030107"><ele>63.0</ele><time>2020-11-03T12:20:34Z</time></trkpt><trkpt lat="58.161925" lon="8.030107"><ele>63.0</ele><time>2020-11-03T12:20:39Z</time></trkpt><trkpt lat="58.161945" lon="8.03002"><ele>63.0</ele><time>2020-11-03T12:20:48Z</time></trkpt><trkpt lat="58.16196" lon="8.02996"><ele>64.0</ele><time>2020-11-03T12:20:55Z</time></trkpt><trkpt lat="58.161935" lon="8.029875"><ele>63.0</ele><time>2020-11-03T12:21:02Z</time></trkpt><trkpt lat="58.161935" lon="8.029875"><ele>63.0</ele><time>2020-11-03T12:21:08Z</time></trkpt><trkpt lat="58.16193" lon="8.029765"><ele>62.0</ele><time>2020-11-03T12:21:37Z</time></trkpt><trkpt lat="58.16193" lon="8.02966"><ele>62.0</ele><time>2020-11-03T12:21:44Z</time></trkpt><trkpt lat="58.161935" lon="8.029522"><ele>62.0</ele><time>2020-11-03T12:21:50Z</time></trkpt><trkpt lat="58.161935" lon="8.02938"><ele>62.0</ele><time>2020-11-03T12:21:57Z</time></trkpt><trkpt lat="58.161915" lon="8.02932"><ele>62.0</ele><time>2020-11-03T12:22:04Z</time></trkpt><trkpt lat="58.161902" lon="8.02931"><ele>62.0</ele><time>2020-11-03T12:22:11Z</time></trkpt><trkpt lat="58.161902" lon="8.02931"><ele>62.0</ele><time>2020-11-03T12:22:13Z</time></trkpt><trkpt lat="58.161917" lon="8.02921"><ele>65.0</ele><time>2020-11-03T12:22:21Z</time></trkpt><trkpt lat="58.161917" lon="8.02921"><ele>65.0</ele><time>2020-11-03T12:22:24Z</time></trkpt><trkpt lat="58.161922" lon="8.029072"><ele>64.0</ele><time>2020-11-03T12:22:37Z</time></trkpt><trkpt lat="58.161935" lon="8.028935"><ele>64.0</ele><time>2020-11-03T12:22:43Z</time></trkpt><trkpt lat="58.161935" lon="8.028795"><ele>63.0</ele><time>2020-11-03T12:22:50Z</time></trkpt><trkpt lat="58.161915" lon="8.028645"><ele>63.0</ele><time>2020-11-03T12:22:56Z</time></trkpt><trkpt lat="58.161845" lon="8.028565"><ele>63.0</ele><time>2020-11-03T12:23:01Z</time></trkpt><trkpt lat="58.16178" lon="8.028475"><ele>64.0</ele><time>2020-11-03T12:23:07Z</time></trkpt><trkpt lat="58.161715" lon="8.028415"><ele>64.0</ele><time>2020-11-03T12:23:13Z</time></trkpt><trkpt lat="58.16164" lon="8.028345"><ele>66.0</ele><time>2020-11-03T12:23:20Z</time></trkpt><trkpt lat="58.161577" lon="8.02828"><ele>67.0</ele><time>2020-11-03T12:23:25Z</time></trkpt><trkpt lat="58.161495" lon="8.02824"><ele>67.0</ele><time>2020-11-03T12:23:31Z</time></trkpt><trkpt lat="58.16142" lon="8.028205"><ele>67.0</ele><time>2020-11-03T12:23:36Z</time></trkpt><trkpt lat="58.16134" lon="8.028185"><ele>68.0</ele><time>2020-11-03T12:23:42Z</time></trkpt><trkpt lat="58.161267" lon="8.02819"><ele>69.0</ele><time>2020-11-03T12:23:48Z</time></trkpt><trkpt lat="58.161195" lon="8.028205"><ele>69.0</ele><time>2020-11-03T12:23:54Z</time></trkpt><trkpt lat="58.16112" lon="8.028225"><ele>70.0</ele><time>2020-11-03T12:24:00Z</time></trkpt><trkpt lat="58.16104" lon="8.0282"><ele>70.0</ele><time>2020-11-03T12:24:06Z</time></trkpt><trkpt lat="58.16096" lon="8.028168"><ele>71.0</ele><time>2020-11-03T12:24:12Z</time></trkpt><trkpt lat="58.16088" lon="8.02819"><ele>72.0</ele><time>2020-11-03T12:24:17Z</time></trkpt><trkpt lat="58.160807" lon="8.028205"><ele>71.0</ele><time>2020-11-03T12:24:23Z</time></trkpt><trkpt lat="58.16075" lon="8.028155"><ele>72.0</ele><time>2020-11-03T12:24:30Z</time></trkpt><trkpt lat="58.160745" lon="8.028212"><ele>72.0</ele><time>2020-11-03T12:24:37Z</time></trkpt><trkpt lat="58.16071" lon="8.028325"><ele>73.0</ele><time>2020-11-03T12:24:44Z</time></trkpt><trkpt lat="58.160645" lon="8.02838"><ele>74.0</ele><time>2020-11-03T12:24:50Z</time></trkpt><trkpt lat="58.160565" lon="8.0284"><ele>73.0</ele><time>2020-11-03T12:24:56Z</time></trkpt><trkpt lat="58.160485" lon="8.028422"><ele>74.0</ele><time>2020-11-03T12:25:02Z</time></trkpt><trkpt lat="58.16041" lon="8.02843"><ele>74.0</ele><time>2020-11-03T12:25:07Z</time></trkpt><trkpt lat="58.160355" lon="8.028547"><ele>74.0</ele><time>2020-11-03T12:25:14Z</time></trkpt><trkpt lat="58.16033" lon="8.028685"><ele>73.0</ele><time>2020-11-03T12:25:20Z</time></trkpt><trkpt lat="58.160307" lon="8.028827"><ele>72.0</ele><time>2020-11-03T12:25:26Z</time></trkpt><trkpt lat="58.160295" lon="8.028975"><ele>72.0</ele><time>2020-11-03T12:25:32Z</time></trkpt><trkpt lat="58.160225" lon="8.029005"><ele>73.0</ele><time>2020-11-03T12:25:39Z</time></trkpt><trkpt lat="58.16015" lon="8.029005"><ele>72.0</ele><time>2020-11-03T12:25:46Z</time></trkpt><trkpt lat="58.160105" lon="8.029025"><ele>72.0</ele><time>2020-11-03T12:25:53Z</time></trkpt><trkpt lat="58.16004" lon="8.028945"><ele>72.0</ele><time>2020-11-03T12:25:58Z</time></trkpt><trkpt lat="58.159975" lon="8.02889"><ele>72.0</ele><time>2020-11-03T12:26:04Z</time></trkpt><trkpt lat="58.15997" lon="8.028855"><ele>71.0</ele><time>2020-11-03T12:26:11Z</time></trkpt><trkpt lat="58.159975" lon="8.028842"><ele>71.0</ele><time>2020-11-03T12:26:18Z</time></trkpt><trkpt lat="58.15999" lon="8.02875"><ele>71.0</ele><time>2020-11-03T12:26:25Z</time></trkpt><trkpt lat="58.15999" lon="8.028633"><ele>71.0</ele><time>2020-11-03T12:26:32Z</time></trkpt><trkpt lat="58.16002" lon="8.028498"><ele>70.0</ele><time>2020-11-03T12:26:39Z</time></trkpt><trkpt lat="58.160027" lon="8.028395"><ele>71.0</ele><time>2020-11-03T12:26:46Z</time></trkpt><trkpt lat="58.160025" lon="8.028345"><ele>70.0</ele><time>2020-11-03T12:26:53Z</time></trkpt><trkpt lat="58.15998" lon="8.028348"><ele>72.0</ele><time>2020-11-03T12:27:00Z</time></trkpt><trkpt lat="58.159932" lon="8.02838"><ele>73.0</ele><time>2020-11-03T12:27:07Z</time></trkpt><trkpt lat="58.15987" lon="8.028403"><ele>73.0</ele><time>2020-11-03T12:27:14Z</time></trkpt><trkpt lat="58.15982" lon="8.02849"><ele>71.0</ele><time>2020-11-03T12:27:21Z</time></trkpt><trkpt lat="58.159755" lon="8.02843"><ele>71.0</ele><time>2020-11-03T12:27:26Z</time></trkpt><trkpt lat="58.159737" lon="8.028295"><ele>68.0</ele><time>2020-11-03T12:27:33Z</time></trkpt><trkpt lat="58.159795" lon="8.0282"><ele>68.0</ele><time>2020-11-03T12:27:40Z</time></trkpt><trkpt lat="58.15983" lon="8.028115"><ele>69.0</ele><time>2020-11-03T12:27:47Z</time></trkpt><trkpt lat="58.159872" lon="8.02799"><ele>71.0</ele><time>2020-11-03T12:27:54Z</time></trkpt><trkpt lat="58.159945" lon="8.028"><ele>68.0</ele><time>2020-11-03T12:28:00Z</time></trkpt><trkpt lat="58.160003" lon="8.027933"><ele>67.0</ele><time>2020-11-03T12:28:07Z</time></trkpt><trkpt lat="58.160075" lon="8.027873"><ele>68.0</ele><time>2020-11-03T12:28:14Z</time></trkpt><trkpt lat="58.16015" lon="8.027827"><ele>67.0</ele><time>2020-11-03T12:28:21Z</time></trkpt><trkpt lat="58.16015" lon="8.027805"><ele>66.0</ele><time>2020-11-03T12:28:28Z</time></trkpt><trkpt lat="58.160145" lon="8.02771"><ele>64.0</ele><time>2020-11-03T12:28:35Z</time></trkpt><trkpt lat="58.160092" lon="8.027588"><ele>63.0</ele><time>2020-11-03T12:28:41Z</time></trkpt><trkpt lat="58.160025" lon="8.027497"><ele>63.0</ele><time>2020-11-03T12:28:48Z</time></trkpt><trkpt lat="58.159965" lon="8.027418"><ele>64.0</ele><time>2020-11-03T12:28:55Z</time></trkpt><trkpt lat="58.159917" lon="8.0273"><ele>65.0</ele><time>2020-11-03T12:29:01Z</time></trkpt><trkpt lat="58.159847" lon="8.027195"><ele>65.0</ele><time>2020-11-03T12:29:07Z</time></trkpt><trkpt lat="58.159795" lon="8.027098"><ele>66.0</ele><time>2020-11-03T12:29:12Z</time></trkpt><trkpt lat="58.15974" lon="8.027002"><ele>66.0</ele><time>2020-11-03T12:29:17Z</time></trkpt><trkpt lat="58.15967" lon="8.026935"><ele>65.0</ele><time>2020-11-03T12:29:22Z</time></trkpt><trkpt lat="58.15962" lon="8.0268"><ele>65.0</ele><time>2020-11-03T12:29:27Z</time></trkpt><trkpt lat="58.15959" lon="8.02665"><ele>66.0</ele><time>2020-11-03T12:29:33Z</time></trkpt><trkpt lat="58.159565" lon="8.026508"><ele>66.0</ele><time>2020-11-03T12:29:39Z</time></trkpt><trkpt lat="58.15957" lon="8.026362"><ele>66.0</ele><time>2020-11-03T12:29:45Z</time></trkpt><trkpt lat="58.15954" lon="8.02635"><ele>65.0</ele><time>2020-11-03T12:29:52Z</time></trkpt><trkpt lat="58.15955" lon="8.026487"><ele>64.0</ele><time>2020-11-03T12:29:58Z</time></trkpt><trkpt lat="58.159565" lon="8.026623"><ele>64.0</ele><time>2020-11-03T12:30:04Z</time></trkpt><trkpt lat="58.15957" lon="8.026762"><ele>65.0</ele><time>2020-11-03T12:30:10Z</time></trkpt><trkpt lat="58.159565" lon="8.02691"><ele>66.0</ele><time>2020-11-03T12:30:16Z</time></trkpt><trkpt lat="58.15954" lon="8.027038"><ele>66.0</ele><time>2020-11-03T12:30:22Z</time></trkpt><trkpt lat="58.15951" lon="8.02717"><ele>65.0</ele><time>2020-11-03T12:30:28Z</time></trkpt><trkpt lat="58.159482" lon="8.0273"><ele>66.0</ele><time>2020-11-03T12:30:34Z</time></trkpt><trkpt lat="58.159435" lon="8.02743"><ele>66.0</ele><time>2020-11-03T12:30:40Z</time></trkpt><trkpt lat="58.159382" lon="8.027545"><ele>65.0</ele><time>2020-11-03T12:30:47Z</time></trkpt><trkpt lat="58.15934" lon="8.027663"><ele>64.0</ele><time>2020-11-03T12:30:53Z</time></trkpt><trkpt lat="58.1593" lon="8.027795"><ele>63.0</ele><time>2020-11-03T12:30:59Z</time></trkpt><trkpt lat="58.159243" lon="8.027885"><ele>62.0</ele><time>2020-11-03T12:31:06Z</time></trkpt><trkpt lat="58.15921" lon="8.028015"><ele>60.0</ele><time>2020-11-03T12:31:12Z</time></trkpt><trkpt lat="58.159185" lon="8.028145"><ele>59.0</ele><time>2020-11-03T12:31:18Z</time></trkpt><trkpt lat="58.159165" lon="8.028275"><ele>58.0</ele><time>2020-11-03T12:31:24Z</time></trkpt><trkpt lat="58.159125" lon="8.0284"><ele>58.0</ele><time>2020-11-03T12:31:30Z</time></trkpt><trkpt lat="58.15909" lon="8.028525"><ele>58.0</ele><time>2020-11-03T12:31:37Z</time></trkpt><trkpt lat="58.15908" lon="8.028665"><ele>57.0</ele><time>2020-11-03T12:31:42Z</time></trkpt><trkpt lat="58.159075" lon="8.028815"><ele>57.0</ele><time>2020-11-03T12:31:48Z</time></trkpt><trkpt lat="58.15904" lon="8.02895"><ele>58.0</ele><time>2020-11-03T12:31:54Z</time></trkpt><trkpt lat="58.159017" lon="8.029083"><ele>57.0</ele><time>2020-11-03T12:31:59Z</time></trkpt><trkpt lat="58.15899" lon="8.02923"><ele>58.0</ele><time>2020-11-03T12:32:05Z</time></trkpt><trkpt lat="58.158942" lon="8.029347"><ele>58.0</ele><time>2020-11-03T12:32:11Z</time></trkpt><trkpt lat="58.15892" lon="8.029495"><ele>57.0</ele><time>2020-11-03T12:32:17Z</time></trkpt><trkpt lat="58.158895" lon="8.029625"><ele>57.0</ele><time>2020-11-03T12:32:22Z</time></trkpt><trkpt lat="58.158865" lon="8.029748"><ele>57.0</ele><time>2020-11-03T12:32:28Z</time></trkpt><trkpt lat="58.158815" lon="8.02982"><ele>56.0</ele><time>2020-11-03T12:32:35Z</time></trkpt><trkpt lat="58.158755" lon="8.029895"><ele>57.0</ele><time>2020-11-03T12:32:42Z</time></trkpt><trkpt lat="58.158687" lon="8.029853"><ele>57.0</ele><time>2020-11-03T12:32:49Z</time></trkpt><trkpt lat="58.158617" lon="8.029808"><ele>57.0</ele><time>2020-11-03T12:32:54Z</time></trkpt><trkpt lat="58.15854" lon="8.0298"><ele>53.0</ele><time>2020-11-03T12:33:01Z</time></trkpt><trkpt lat="58.158525" lon="8.029875"><ele>51.0</ele><time>2020-11-03T12:33:08Z</time></trkpt><trkpt lat="58.158505" lon="8.030002"><ele>51.0</ele><time>2020-11-03T12:33:14Z</time></trkpt><trkpt lat="58.15848" lon="8.030147"><ele>52.0</ele><time>2020-11-03T12:33:21Z</time></trkpt><trkpt lat="58.158445" lon="8.030277"><ele>53.0</ele><time>2020-11-03T12:33:27Z</time></trkpt><trkpt lat="58.158402" lon="8.030405"><ele>54.0</ele><time>2020-11-03T12:33:32Z</time></trkpt><trkpt lat="58.15836" lon="8.030535"><ele>54.0</ele><time>2020-11-03T12:33:38Z</time></trkpt><trkpt lat="58.15828" lon="8.03054"><ele>52.0</ele><time>2020-11-03T12:33:44Z</time></trkpt><trkpt lat="58.158207" lon="8.030518"><ele>52.0</ele><time>2020-11-03T12:33:48Z</time></trkpt><trkpt lat="58.15813" lon="8.0305"><ele>52.0</ele><time>2020-11-03T12:33:53Z</time></trkpt><trkpt lat="58.158045" lon="8.03046"><ele>51.0</ele><time>2020-11-03T12:34:00Z</time></trkpt><trkpt lat="58.157962" lon="8.030423"><ele>52.0</ele><time>2020-11-03T12:34:07Z</time></trkpt><trkpt lat="58.157887" lon="8.03041"><ele>52.0</ele><time>2020-11-03T12:34:13Z</time></trkpt><trkpt lat="58.157815" lon="8.030372"><ele>52.0</ele><time>2020-11-03T12:34:18Z</time></trkpt><trkpt lat="58.157738" lon="8.030327"><ele>52.0</ele><time>2020-11-03T12:34:24Z</time></trkpt><trkpt lat="58.15767" lon="8.030282"><ele>54.0</ele><time>2020-11-03T12:34:29Z</time></trkpt><trkpt lat="58.157595" lon="8.030262"><ele>55.0</ele><time>2020-11-03T12:34:36Z</time></trkpt><trkpt lat="58.157545" lon="8.030147"><ele>52.0</ele><time>2020-11-03T12:34:43Z</time></trkpt><trkpt lat="58.157565" lon="8.029997"><ele>50.0</ele><time>2020-11-03T12:34:49Z</time></trkpt><trkpt lat="58.157545" lon="8.02985"><ele>50.0</ele><time>2020-11-03T12:34:55Z</time></trkpt><trkpt lat="58.157555" lon="8.0297"><ele>47.0</ele><time>2020-11-03T12:35:02Z</time></trkpt><trkpt lat="58.157575" lon="8.029565"><ele>46.0</ele><time>2020-11-03T12:35:07Z</time></trkpt><trkpt lat="58.157595" lon="8.02941"><ele>45.0</ele><time>2020-11-03T12:35:13Z</time></trkpt><trkpt lat="58.157635" lon="8.029285"><ele>47.0</ele><time>2020-11-03T12:35:19Z</time></trkpt><trkpt lat="58.157668" lon="8.02914"><ele>47.0</ele><time>2020-11-03T12:35:25Z</time></trkpt><trkpt lat="58.157695" lon="8.029005"><ele>47.0</ele><time>2020-11-03T12:35:30Z</time></trkpt><trkpt lat="58.157725" lon="8.028868"><ele>47.0</ele><time>2020-11-03T12:35:35Z</time></trkpt><trkpt lat="58.157755" lon="8.028735"><ele>47.0</ele><time>2020-11-03T12:35:40Z</time></trkpt><trkpt lat="58.15778" lon="8.0286"><ele>47.0</ele><time>2020-11-03T12:35:45Z</time></trkpt><trkpt lat="58.157815" lon="8.028478"><ele>46.0</ele><time>2020-11-03T12:35:51Z</time></trkpt><trkpt lat="58.15784" lon="8.028335"><ele>46.0</ele><time>2020-11-03T12:35:57Z</time></trkpt><trkpt lat="58.15786" lon="8.02819"><ele>45.0</ele><time>2020-11-03T12:36:03Z</time></trkpt><trkpt lat="58.157888" lon="8.02805"><ele>44.0</ele><time>2020-11-03T12:36:09Z</time></trkpt><trkpt lat="58.157915" lon="8.027915"><ele>44.0</ele><time>2020-11-03T12:36:15Z</time></trkpt><trkpt lat="58.157945" lon="8.027775"><ele>43.0</ele><time>2020-11-03T12:36:21Z</time></trkpt><trkpt lat="58.157975" lon="8.027715"><ele>44.0</ele><time>2020-11-03T12:36:28Z</time></trkpt><trkpt lat="58.157985" lon="8.02772"><ele>44.0</ele><time>2020-11-03T12:36:35Z</time></trkpt><trkpt lat="58.157985" lon="8.02772"><ele>44.0</ele><time>2020-11-03T12:36:36Z</time></trkpt><trkpt lat="58.15798" lon="8.02768"><ele>46.0</ele><time>2020-11-03T12:36:43Z</time></trkpt><trkpt lat="58.15798" lon="8.02768"><ele>46.0</ele><time>2020-11-03T12:36:44Z</time></trkpt></trkseg></trk></gpx>